Page, AZ

3:25 PM MDT on August 29, 2016 (GMT -0600)
grandview st | | Change Station

Elev 4275 ft 36.93 °N, 111.46 °W | Updated 5 minutes ago

Clear
Clear
86.3 °F
Feels Like 83 °F
N
6.3
Wind Variable Wind from ENE

Today
High -- | Low -- °F
--% Chance of Precip.
Yesterday
High -- | Low -- °F
Precip. -- in
Pressure 29.96 in
Visibility 10.0 miles
Clouds Clear
Heat Index 83 °F
Dew Point 39 °F
Humidity 19%
Rainfall 0.00 in
Snow Depth Not available.
6:54 AM 7:57 PM
Waning Crescent, 7% visible
METAR KPGA 292053Z AUTO 03009KT 10SM CLR 32/04 A3016 RMK AO2 SLP146 T03170044 58015 TSNO
Pressure 29.96 in
Visibility 10.0 miles
Clouds Clear
Heat Index 83 °F
Dew Point 39 °F
Humidity 19%
Rainfall 0.00 in
Snow Depth Not available.
6:54 AM 7:57 PM
Waning Crescent, 7% visible
METAR KPGA 292053Z AUTO 03009KT 10SM CLR 32/04 A3016 RMK AO2 SLP146 T03170044 58015 TSNO

10-Day Weather Forecast

Almanac

Astronomy

Aug. 29, 2016 Rise Set
Actual Time
Civil Twilight
Nautical Twilight
Astronomical Twilight
Moon
Length of Visible Light
Length of Day
Tomorrow will be .
, % of the Moon is Illuminated

Today's Extremes

State Highs State Lows

Community

WunderPhotos

Upload Photos

1,935,679 photos uploaded!

WunderBlog® & News

Nearby

Air Quality

  Air Quality AQ Index Pollutant
Not available.

Snow Depth

Station Depth Elevation

Earthquake Activity

City Distance Mag. Time & Date
Minimum magnitude displayed is 2.5.

Coastal Water Temperatures

Place Temperature

Stations

Nearby Weather Stations

Station Location Temp. Windchill Dew Point Humidity Wind Precip. Elev Updated Type
                   

Watches & Warnings

There are currently no watches in effect.